sensor_id;sensor_type;location;lat;lon;timestamp;P1;durP1;ratioP1;P2;durP2;ratioP2
47053;SDS011;32811;52.382;5.270;2023-12-28T00:02:15;4.78;;;1.65;;
47053;SDS011;32811;52.382;5.270;2023-12-28T00:04:42;3.40;;;1.58;;
47053;SDS011;32811;52.382;5.270;2023-12-28T00:07:08;3.30;;;1.45;;
47053;SDS011;32811;52.382;5.270;2023-12-28T00:09:35;4.97;;;1.50;;
47053;SDS011;32811;52.382;5.270;2023-12-28T00:12:02;9.07;;;1.92;;
47053;SDS011;32811;52.382;5.270;2023-12-28T00:14:29;5.75;;;1.40;;
47053;SDS011;32811;52.382;5.270;2023-12-28T00:16:55;4.32;;;1.30;;
47053;SDS011;32811;52.382;5.270;2023-12-28T00:19:22;6.25;;;1.42;;
47053;SDS011;32811;52.382;5.270;2023-12-28T00:21:49;6.38;;;1.45;;
47053;SDS011;32811;52.382;5.270;2023-12-28T00:24:16;5.70;;;1.65;;
47053;SDS011;32811;52.382;5.270;2023-12-28T00:26:43;6.63;;;1.58;;
47053;SDS011;32811;52.382;5.270;2023-12-28T00:29:10;7.40;;;1.88;;
47053;SDS011;32811;52.382;5.270;2023-12-28T00:31:36;5.18;;;2.88;;
47053;SDS011;32811;52.382;5.270;2023-12-28T00:34:03;7.53;;;2.13;;
47053;SDS011;32811;52.382;5.270;2023-12-28T00:36:30;5.38;;;1.63;;
47053;SDS011;32811;52.382;5.270;2023-12-28T00:38:57;12.40;;;3.25;;
47053;SDS011;32811;52.382;5.270;2023-12-28T00:41:23;8.23;;;1.33;;
47053;SDS011;32811;52.382;5.270;2023-12-28T00:43:50;6.18;;;1.20;;
47053;SDS011;32811;52.382;5.270;2023-12-28T00:46:17;11.40;;;2.17;;
47053;SDS011;32811;52.382;5.270;2023-12-28T00:48:43;5.20;;;1.35;;
47053;SDS011;32811;52.382;5.270;2023-12-28T00:51:10;8.98;;;1.50;;
47053;SDS011;32811;52.382;5.270;2023-12-28T00:53:37;6.05;;;1.88;;
47053;SDS011;32811;52.382;5.270;2023-12-28T00:56:03;12.85;;;1.90;;
47053;SDS011;32811;52.382;5.270;2023-12-28T00:58:30;6.55;;;1.35;;
47053;SDS011;32811;52.382;5.270;2023-12-28T01:00:57;6.90;;;1.73;;
47053;SDS011;32811;52.382;5.270;2023-12-28T01:03:24;7.68;;;1.80;;
47053;SDS011;32811;52.382;5.270;2023-12-28T01:05:51;4.80;;;1.65;;
47053;SDS011;32811;52.382;5.270;2023-12-28T01:08:19;5.68;;;2.08;;
47053;SDS011;32811;52.382;5.270;2023-12-28T01:10:45;10.52;;;1.90;;
47053;SDS011;32811;52.382;5.270;2023-12-28T01:13:12;2.75;;;1.02;;
47053;SDS011;32811;52.382;5.270;2023-12-28T01:15:39;8.15;;;1.23;;
47053;SDS011;32811;52.382;5.270;2023-12-28T01:18:05;9.85;;;2.85;;
47053;SDS011;32811;52.382;5.270;2023-12-28T01:20:33;4.47;;;1.88;;
47053;SDS011;32811;52.382;5.270;2023-12-28T01:23:01;3.17;;;1.10;;
47053;SDS011;32811;52.382;5.270;2023-12-28T01:25:28;11.52;;;1.65;;
47053;SDS011;32811;52.382;5.270;2023-12-28T01:27:54;8.95;;;1.08;;
47053;SDS011;32811;52.382;5.270;2023-12-28T01:30:22;4.88;;;1.10;;
47053;SDS011;32811;52.382;5.270;2023-12-28T01:32:49;9.82;;;1.15;;
47053;SDS011;32811;52.382;5.270;2023-12-28T01:35:15;5.68;;;1.33;;
47053;SDS011;32811;52.382;5.270;2023-12-28T01:37:42;12.55;;;2.67;;
47053;SDS011;32811;52.382;5.270;2023-12-28T01:40:09;7.22;;;1.33;;
47053;SDS011;32811;52.382;5.270;2023-12-28T01:42:35;8.48;;;1.58;;
47053;SDS011;32811;52.382;5.270;2023-12-28T01:45:03;15.70;;;1.55;;
47053;SDS011;32811;52.382;5.270;2023-12-28T01:47:30;4.18;;;1.10;;
47053;SDS011;32811;52.382;5.270;2023-12-28T01:49:57;6.07;;;1.20;;
47053;SDS011;32811;52.382;5.270;2023-12-28T01:52:26;7.18;;;1.23;;
47053;SDS011;32811;52.382;5.270;2023-12-28T01:54:54;4.10;;;2.00;;
47053;SDS011;32811;52.382;5.270;2023-12-28T01:57:21;11.90;;;2.22;;
47053;SDS011;32811;52.382;5.270;2023-12-28T01:59:48;4.15;;;0.95;;
47053;SDS011;32811;52.382;5.270;2023-12-28T02:02:15;7.68;;;1.45;;
47053;SDS011;32811;52.382;5.270;2023-12-28T02:04:42;5.85;;;1.30;;
47053;SDS011;32811;52.382;5.270;2023-12-28T02:07:10;8.73;;;1.65;;
47053;SDS011;32811;52.382;5.270;2023-12-28T02:09:39;6.57;;;1.17;;
47053;SDS011;32811;52.382;5.270;2023-12-28T02:12:06;7.00;;;1.10;;
47053;SDS011;32811;52.382;5.270;2023-12-28T02:14:33;8.88;;;1.50;;
47053;SDS011;32811;52.382;5.270;2023-12-28T02:17:03;7.05;;;0.98;;
47053;SDS011;32811;52.382;5.270;2023-12-28T02:22:07;4.03;;;1.20;;
47053;SDS011;32811;52.382;5.270;2023-12-28T02:29:46;5.57;;;1.10;;
47053;SDS011;32811;52.382;5.270;2023-12-28T02:32:13;6.45;;;1.33;;
47053;SDS011;32811;52.382;5.270;2023-12-28T02:34:43;8.45;;;1.15;;
47053;SDS011;32811;52.382;5.270;2023-12-28T02:37:12;5.22;;;0.98;;
47053;SDS011;32811;52.382;5.270;2023-12-28T02:39:41;5.43;;;1.52;;
47053;SDS011;32811;52.382;5.270;2023-12-28T02:42:10;8.55;;;1.63;;
47053;SDS011;32811;52.382;5.270;2023-12-28T02:44:37;6.45;;;1.27;;
47053;SDS011;32811;52.382;5.270;2023-12-28T02:47:04;8.48;;;1.42;;
47053;SDS011;32811;52.382;5.270;2023-12-28T02:49:31;5.70;;;1.50;;
47053;SDS011;32811;52.382;5.270;2023-12-28T02:51:58;7.85;;;1.13;;
47053;SDS011;32811;52.382;5.270;2023-12-28T02:54:24;6.57;;;1.20;;
47053;SDS011;32811;52.382;5.270;2023-12-28T02:56:51;6.30;;;1.55;;
47053;SDS011;32811;52.382;5.270;2023-12-28T02:59:18;4.80;;;1.88;;
47053;SDS011;32811;52.382;5.270;2023-12-28T03:01:44;8.68;;;1.60;;
47053;SDS011;32811;52.382;5.270;2023-12-28T03:04:11;5.30;;;2.00;;
47053;SDS011;32811;52.382;5.270;2023-12-28T03:06:38;5.85;;;1.52;;
47053;SDS011;32811;52.382;5.270;2023-12-28T03:09:06;5.78;;;1.85;;
47053;SDS011;32811;52.382;5.270;2023-12-28T03:11:33;6.63;;;1.05;;
47053;SDS011;32811;52.382;5.270;2023-12-28T03:13:59;4.15;;;1.10;;
47053;SDS011;32811;52.382;5.270;2023-12-28T03:16:27;5.85;;;1.30;;
47053;SDS011;32811;52.382;5.270;2023-12-28T03:18:54;9.45;;;1.98;;
47053;SDS011;32811;52.382;5.270;2023-12-28T03:21:21;10.93;;;1.40;;
47053;SDS011;32811;52.382;5.270;2023-12-28T03:23:47;9.27;;;1.17;;
47053;SDS011;32811;52.382;5.270;2023-12-28T03:26:14;6.78;;;1.30;;
47053;SDS011;32811;52.382;5.270;2023-12-28T03:28:41;6.18;;;1.48;;
47053;SDS011;32811;52.382;5.270;2023-12-28T03:31:07;5.65;;;1.05;;
47053;SDS011;32811;52.382;5.270;2023-12-28T03:33:34;9.05;;;1.45;;
47053;SDS011;32811;52.382;5.270;2023-12-28T03:36:01;3.65;;;1.85;;
47053;SDS011;32811;52.382;5.270;2023-12-28T03:38:27;7.90;;;1.27;;
47053;SDS011;32811;52.382;5.270;2023-12-28T03:40:54;10.00;;;2.83;;
47053;SDS011;32811;52.382;5.270;2023-12-28T03:43:21;7.95;;;1.20;;
47053;SDS011;32811;52.382;5.270;2023-12-28T03:45:48;9.45;;;2.42;;
47053;SDS011;32811;52.382;5.270;2023-12-28T03:48:14;9.00;;;1.08;;
47053;SDS011;32811;52.382;5.270;2023-12-28T03:50:41;8.48;;;1.40;;
47053;SDS011;32811;52.382;5.270;2023-12-28T03:53:08;6.80;;;1.30;;
47053;SDS011;32811;52.382;5.270;2023-12-28T03:55:34;4.60;;;1.33;;
47053;SDS011;32811;52.382;5.270;2023-12-28T03:58:01;5.13;;;0.90;;
47053;SDS011;32811;52.382;5.270;2023-12-28T04:00:28;8.52;;;1.02;;
47053;SDS011;32811;52.382;5.270;2023-12-28T04:02:55;13.00;;;3.10;;
47053;SDS011;32811;52.382;5.270;2023-12-28T04:05:24;3.30;;;0.60;;
47053;SDS011;32811;52.382;5.270;2023-12-28T04:07:51;10.98;;;2.20;;
47053;SDS011;32811;52.382;5.270;2023-12-28T04:10:27;4.93;;;1.00;;
47053;SDS011;32811;52.382;5.270;2023-12-28T04:12:56;6.57;;;1.50;;
47053;SDS011;32811;52.382;5.270;2023-12-28T04:15:24;4.93;;;1.10;;
47053;SDS011;32811;52.382;5.270;2023-12-28T04:17:51;8.30;;;1.00;;
47053;SDS011;32811;52.382;5.270;2023-12-28T04:20:18;12.45;;;2.20;;
47053;SDS011;32811;52.382;5.270;2023-12-28T04:22:45;10.10;;;2.13;;
47053;SDS011;32811;52.382;5.270;2023-12-28T04:25:11;7.85;;;1.25;;
47053;SDS011;32811;52.382;5.270;2023-12-28T04:27:38;10.30;;;2.55;;
47053;SDS011;32811;52.382;5.270;2023-12-28T04:30:05;5.05;;;1.10;;
47053;SDS011;32811;52.382;5.270;2023-12-28T04:32:32;4.93;;;1.30;;
47053;SDS011;32811;52.382;5.270;2023-12-28T04:34:59;6.15;;;1.30;;
47053;SDS011;32811;52.382;5.270;2023-12-28T04:37:25;7.53;;;1.38;;
47053;SDS011;32811;52.382;5.270;2023-12-28T04:39:53;8.90;;;2.25;;
47053;SDS011;32811;52.382;5.270;2023-12-28T04:42:21;8.00;;;1.10;;
47053;SDS011;32811;52.382;5.270;2023-12-28T04:44:47;9.40;;;1.23;;
47053;SDS011;32811;52.382;5.270;2023-12-28T04:47:14;9.50;;;1.27;;
47053;SDS011;32811;52.382;5.270;2023-12-28T04:49:43;9.95;;;1.75;;
47053;SDS011;32811;52.382;5.270;2023-12-28T04:52:10;5.25;;;1.30;;
47053;SDS011;32811;52.382;5.270;2023-12-28T04:54:39;7.40;;;0.90;;
47053;SDS011;32811;52.382;5.270;2023-12-28T04:57:06;7.13;;;2.15;;
47053;SDS011;32811;52.382;5.270;2023-12-28T04:59:41;12.70;;;2.35;;
47053;SDS011;32811;52.382;5.270;2023-12-28T05:02:08;10.10;;;1.15;;
47053;SDS011;32811;52.382;5.270;2023-12-28T05:04:37;10.95;;;2.05;;
47053;SDS011;32811;52.382;5.270;2023-12-28T05:07:07;13.60;;;1.98;;
47053;SDS011;32811;52.382;5.270;2023-12-28T05:09:34;12.90;;;1.80;;
47053;SDS011;32811;52.382;5.270;2023-12-28T05:12:01;11.02;;;2.30;;
47053;SDS011;32811;52.382;5.270;2023-12-28T05:14:28;11.85;;;1.50;;
47053;SDS011;32811;52.382;5.270;2023-12-28T05:16:55;16.75;;;1.60;;
47053;SDS011;32811;52.382;5.270;2023-12-28T05:19:22;9.23;;;1.13;;
47053;SDS011;32811;52.382;5.270;2023-12-28T05:21:49;13.88;;;1.67;;
47053;SDS011;32811;52.382;5.270;2023-12-28T05:24:15;11.80;;;1.45;;
47053;SDS011;32811;52.382;5.270;2023-12-28T05:26:42;7.28;;;1.33;;
47053;SDS011;32811;52.382;5.270;2023-12-28T05:29:11;8.65;;;2.10;;
47053;SDS011;32811;52.382;5.270;2023-12-28T05:31:40;14.52;;;1.67;;
47053;SDS011;32811;52.382;5.270;2023-12-28T05:34:06;18.10;;;2.72;;
47053;SDS011;32811;52.382;5.270;2023-12-28T05:36:33;6.60;;;1.20;;
47053;SDS011;32811;52.382;5.270;2023-12-28T05:39:00;9.57;;;2.60;;
47053;SDS011;32811;52.382;5.270;2023-12-28T05:41:26;16.63;;;2.83;;
47053;SDS011;32811;52.382;5.270;2023-12-28T05:43:53;13.07;;;1.42;;
47053;SDS011;32811;52.382;5.270;2023-12-28T05:46:20;8.02;;;1.23;;
47053;SDS011;32811;52.382;5.270;2023-12-28T05:48:46;7.90;;;1.88;;
47053;SDS011;32811;52.382;5.270;2023-12-28T05:51:14;17.40;;;1.60;;
47053;SDS011;32811;52.382;5.270;2023-12-28T05:53:40;17.17;;;1.73;;
47053;SDS011;32811;52.382;5.270;2023-12-28T05:56:08;15.65;;;1.83;;
47053;SDS011;32811;52.382;5.270;2023-12-28T05:58:34;17.45;;;1.90;;
47053;SDS011;32811;52.382;5.270;2023-12-28T06:01:01;8.40;;;2.20;;
47053;SDS011;32811;52.382;5.270;2023-12-28T06:03:31;8.25;;;1.60;;
47053;SDS011;32811;52.382;5.270;2023-12-28T06:05:58;12.40;;;1.40;;
47053;SDS011;32811;52.382;5.270;2023-12-28T06:08:24;15.68;;;2.63;;
47053;SDS011;32811;52.382;5.270;2023-12-28T06:10:53;15.25;;;2.47;;
47053;SDS011;32811;52.382;5.270;2023-12-28T06:13:20;14.20;;;2.28;;
47053;SDS011;32811;52.382;5.270;2023-12-28T06:15:46;9.63;;;1.23;;
47053;SDS011;32811;52.382;5.270;2023-12-28T06:18:13;13.40;;;3.80;;
47053;SDS011;32811;52.382;5.270;2023-12-28T06:20:40;12.30;;;1.42;;
47053;SDS011;32811;52.382;5.270;2023-12-28T06:23:07;13.05;;;2.28;;
47053;SDS011;32811;52.382;5.270;2023-12-28T06:25:34;13.30;;;1.77;;
47053;SDS011;32811;52.382;5.270;2023-12-28T06:28:04;8.93;;;2.40;;
47053;SDS011;32811;52.382;5.270;2023-12-28T06:30:31;11.77;;;2.88;;
47053;SDS011;32811;52.382;5.270;2023-12-28T06:32:57;14.65;;;1.70;;
47053;SDS011;32811;52.382;5.270;2023-12-28T06:35:24;16.90;;;2.65;;
47053;SDS011;32811;52.382;5.270;2023-12-28T06:37:51;14.45;;;1.27;;
47053;SDS011;32811;52.382;5.270;2023-12-28T06:40:17;16.92;;;2.63;;
47053;SDS011;32811;52.382;5.270;2023-12-28T06:42:45;24.98;;;2.88;;
47053;SDS011;32811;52.382;5.270;2023-12-28T06:45:12;18.15;;;2.60;;
47053;SDS011;32811;52.382;5.270;2023-12-28T06:47:38;22.55;;;2.50;;
47053;SDS011;32811;52.382;5.270;2023-12-28T06:50:05;6.95;;;1.67;;
47053;SDS011;32811;52.382;5.270;2023-12-28T06:52:32;13.45;;;2.22;;
47053;SDS011;32811;52.382;5.270;2023-12-28T06:54:59;26.20;;;4.13;;
47053;SDS011;32811;52.382;5.270;2023-12-28T06:57:26;16.25;;;1.88;;
47053;SDS011;32811;52.382;5.270;2023-12-28T06:59:52;14.77;;;3.30;;
47053;SDS011;32811;52.382;5.270;2023-12-28T07:02:20;12.57;;;1.70;;
47053;SDS011;32811;52.382;5.270;2023-12-28T07:04:49;9.75;;;2.88;;
47053;SDS011;32811;52.382;5.270;2023-12-28T07:07:15;17.35;;;1.80;;
47053;SDS011;32811;52.382;5.270;2023-12-28T07:09:42;16.00;;;3.03;;
47053;SDS011;32811;52.382;5.270;2023-12-28T07:12:08;16.73;;;2.65;;
47053;SDS011;32811;52.382;5.270;2023-12-28T07:14:35;20.65;;;2.78;;
47053;SDS011;32811;52.382;5.270;2023-12-28T07:17:02;16.75;;;2.97;;
47053;SDS011;32811;52.382;5.270;2023-12-28T07:19:29;18.00;;;2.25;;
47053;SDS011;32811;52.382;5.270;2023-12-28T07:21:56;12.70;;;1.90;;
47053;SDS011;32811;52.382;5.270;2023-12-28T07:24:23;25.20;;;3.40;;
47053;SDS011;32811;52.382;5.270;2023-12-28T07:26:49;15.80;;;2.42;;
47053;SDS011;32811;52.382;5.270;2023-12-28T07:29:16;18.67;;;2.28;;
47053;SDS011;32811;52.382;5.270;2023-12-28T07:31:43;17.50;;;2.72;;
47053;SDS011;32811;52.382;5.270;2023-12-28T07:34:10;21.20;;;3.70;;
47053;SDS011;32811;52.382;5.270;2023-12-28T07:36:36;17.33;;;3.30;;
47053;SDS011;32811;52.382;5.270;2023-12-28T07:39:03;16.65;;;2.47;;
47053;SDS011;32811;52.382;5.270;2023-12-28T07:41:30;20.17;;;2.28;;
47053;SDS011;32811;52.382;5.270;2023-12-28T07:43:56;19.85;;;3.13;;
47053;SDS011;32811;52.382;5.270;2023-12-28T07:46:25;22.10;;;3.38;;
47053;SDS011;32811;52.382;5.270;2023-12-28T07:48:52;15.63;;;2.75;;
47053;SDS011;32811;52.382;5.270;2023-12-28T07:51:18;18.23;;;3.42;;
47053;SDS011;32811;52.382;5.270;2023-12-28T07:53:45;20.88;;;3.20;;
47053;SDS011;32811;52.382;5.270;2023-12-28T07:56:12;15.93;;;1.90;;
47053;SDS011;32811;52.382;5.270;2023-12-28T07:58:38;19.83;;;2.42;;
47053;SDS011;32811;52.382;5.270;2023-12-28T08:01:11;17.33;;;3.08;;
47053;SDS011;32811;52.382;5.270;2023-12-28T08:03:41;13.15;;;2.95;;
47053;SDS011;32811;52.382;5.270;2023-12-28T08:06:07;12.02;;;3.20;;
47053;SDS011;32811;52.382;5.270;2023-12-28T08:08:34;16.10;;;2.20;;
47053;SDS011;32811;52.382;5.270;2023-12-28T08:11:02;20.63;;;2.80;;
47053;SDS011;32811;52.382;5.270;2023-12-28T08:13:29;16.20;;;2.90;;
47053;SDS011;32811;52.382;5.270;2023-12-28T08:15:55;15.82;;;3.33;;
47053;SDS011;32811;52.382;5.270;2023-12-28T08:18:22;15.68;;;2.38;;
47053;SDS011;32811;52.382;5.270;2023-12-28T08:20:49;14.65;;;2.35;;
47053;SDS011;32811;52.382;5.270;2023-12-28T08:23:16;12.75;;;1.83;;
47053;SDS011;32811;52.382;5.270;2023-12-28T08:25:44;11.23;;;1.90;;
47053;SDS011;32811;52.382;5.270;2023-12-28T08:28:11;24.05;;;3.80;;
47053;SDS011;32811;52.382;5.270;2023-12-28T08:30:38;18.92;;;2.38;;
47053;SDS011;32811;52.382;5.270;2023-12-28T08:33:05;20.30;;;2.35;;
47053;SDS011;32811;52.382;5.270;2023-12-28T08:35:32;15.13;;;2.53;;
47053;SDS011;32811;52.382;5.270;2023-12-28T08:37:59;15.38;;;1.80;;
47053;SDS011;32811;52.382;5.270;2023-12-28T08:40:26;16.90;;;2.67;;
47053;SDS011;32811;52.382;5.270;2023-12-28T08:42:52;18.00;;;2.80;;
47053;SDS011;32811;52.382;5.270;2023-12-28T08:45:19;25.95;;;3.20;;
47053;SDS011;32811;52.382;5.270;2023-12-28T08:47:46;15.57;;;2.38;;
47053;SDS011;32811;52.382;5.270;2023-12-28T08:50:12;16.10;;;3.38;;
47053;SDS011;32811;52.382;5.270;2023-12-28T08:52:39;18.30;;;2.47;;
47053;SDS011;32811;52.382;5.270;2023-12-28T08:55:06;14.13;;;2.63;;
47053;SDS011;32811;52.382;5.270;2023-12-28T08:57:33;27.95;;;3.70;;
47053;SDS011;32811;52.382;5.270;2023-12-28T09:00:08;14.27;;;2.92;;
47053;SDS011;32811;52.382;5.270;2023-12-28T09:02:36;31.55;;;4.40;;
47053;SDS011;32811;52.382;5.270;2023-12-28T09:05:03;17.25;;;3.00;;
47053;SDS011;32811;52.382;5.270;2023-12-28T09:07:32;12.15;;;2.33;;
47053;SDS011;32811;52.382;5.270;2023-12-28T09:09:59;14.38;;;2.00;;
47053;SDS011;32811;52.382;5.270;2023-12-28T09:12:26;14.93;;;2.45;;
47053;SDS011;32811;52.382;5.270;2023-12-28T09:14:52;16.20;;;2.20;;
47053;SDS011;32811;52.382;5.270;2023-12-28T09:17:22;21.10;;;4.55;;
47053;SDS011;32811;52.382;5.270;2023-12-28T09:19:49;17.92;;;2.17;;
47053;SDS011;32811;52.382;5.270;2023-12-28T09:22:16;10.23;;;1.92;;
47053;SDS011;32811;52.382;5.270;2023-12-28T09:24:43;16.02;;;1.77;;
47053;SDS011;32811;52.382;5.270;2023-12-28T09:27:09;17.63;;;3.03;;
47053;SDS011;32811;52.382;5.270;2023-12-28T09:29:38;14.90;;;1.65;;
47053;SDS011;32811;52.382;5.270;2023-12-28T09:32:05;15.75;;;1.95;;
47053;SDS011;32811;52.382;5.270;2023-12-28T09:34:32;18.45;;;2.63;;
47053;SDS011;32811;52.382;5.270;2023-12-28T09:36:59;20.15;;;2.75;;
47053;SDS011;32811;52.382;5.270;2023-12-28T09:39:26;18.23;;;2.60;;
47053;SDS011;32811;52.382;5.270;2023-12-28T09:42:01;16.10;;;2.42;;
47053;SDS011;32811;52.382;5.270;2023-12-28T09:44:32;10.02;;;2.25;;
47053;SDS011;32811;52.382;5.270;2023-12-28T09:47:05;14.48;;;3.00;;
47053;SDS011;32811;52.382;5.270;2023-12-28T09:49:33;19.00;;;2.47;;
47053;SDS011;32811;52.382;5.270;2023-12-28T09:52:06;19.45;;;2.58;;
47053;SDS011;32811;52.382;5.270;2023-12-28T09:54:34;16.42;;;1.83;;
47053;SDS011;32811;52.382;5.270;2023-12-28T09:57:01;11.68;;;2.20;;
47053;SDS011;32811;52.382;5.270;2023-12-28T09:59:30;15.32;;;2.28;;
47053;SDS011;32811;52.382;5.270;2023-12-28T10:02:00;15.43;;;2.10;;
47053;SDS011;32811;52.382;5.270;2023-12-28T10:04:28;25.48;;;3.05;;
47053;SDS011;32811;52.382;5.270;2023-12-28T10:06:55;16.70;;;2.83;;
47053;SDS011;32811;52.382;5.270;2023-12-28T10:09:22;12.07;;;2.78;;
47053;SDS011;32811;52.382;5.270;2023-12-28T10:11:49;16.40;;;2.45;;
47053;SDS011;32811;52.382;5.270;2023-12-28T10:14:15;24.77;;;3.92;;
47053;SDS011;32811;52.382;5.270;2023-12-28T10:16:43;17.98;;;4.80;;
47053;SDS011;32811;52.382;5.270;2023-12-28T10:19:09;22.75;;;2.90;;
47053;SDS011;32811;52.382;5.270;2023-12-28T10:21:38;16.98;;;2.40;;
47053;SDS011;32811;52.382;5.270;2023-12-28T10:24:06;22.13;;;2.25;;
47053;SDS011;32811;52.382;5.270;2023-12-28T10:26:32;13.13;;;2.33;;
47053;SDS011;32811;52.382;5.270;2023-12-28T10:28:59;17.02;;;2.13;;
47053;SDS011;32811;52.382;5.270;2023-12-28T10:31:29;21.35;;;3.63;;
47053;SDS011;32811;52.382;5.270;2023-12-28T10:34:00;22.60;;;2.60;;
47053;SDS011;32811;52.382;5.270;2023-12-28T10:36:30;14.25;;;2.63;;
47053;SDS011;32811;52.382;5.270;2023-12-28T10:38:58;14.15;;;3.17;;
47053;SDS011;32811;52.382;5.270;2023-12-28T10:41:27;14.63;;;4.18;;
47053;SDS011;32811;52.382;5.270;2023-12-28T10:44:02;17.33;;;3.17;;
47053;SDS011;32811;52.382;5.270;2023-12-28T10:46:36;20.30;;;2.95;;
47053;SDS011;32811;52.382;5.270;2023-12-28T10:49:10;13.30;;;2.10;;
47053;SDS011;32811;52.382;5.270;2023-12-28T10:51:43;20.30;;;2.13;;
47053;SDS011;32811;52.382;5.270;2023-12-28T10:57:22;19.33;;;2.78;;
47053;SDS011;32811;52.382;5.270;2023-12-28T11:00:09;23.60;;;4.10;;
47053;SDS011;32811;52.382;5.270;2023-12-28T11:02:38;17.77;;;2.95;;
47053;SDS011;32811;52.382;5.270;2023-12-28T11:05:12;22.77;;;4.15;;
47053;SDS011;32811;52.382;5.270;2023-12-28T11:07:41;22.55;;;3.80;;
47053;SDS011;32811;52.382;5.270;2023-12-28T11:10:09;19.77;;;3.53;;
47053;SDS011;32811;52.382;5.270;2023-12-28T11:12:37;13.25;;;2.72;;
47053;SDS011;32811;52.382;5.270;2023-12-28T11:15:05;14.32;;;2.10;;
47053;SDS011;32811;52.382;5.270;2023-12-28T11:17:36;27.73;;;4.22;;
47053;SDS011;32811;52.382;5.270;2023-12-28T11:20:04;15.43;;;2.05;;
47053;SDS011;32811;52.382;5.270;2023-12-28T11:22:32;14.20;;;2.05;;
47053;SDS011;32811;52.382;5.270;2023-12-28T11:25:02;20.73;;;1.92;;
47053;SDS011;32811;52.382;5.270;2023-12-28T11:27:34;17.13;;;3.13;;
47053;SDS011;32811;52.382;5.270;2023-12-28T11:30:03;13.77;;;2.60;;
47053;SDS011;32811;52.382;5.270;2023-12-28T11:32:37;20.48;;;2.88;;
47053;SDS011;32811;52.382;5.270;2023-12-28T11:35:13;21.40;;;2.78;;
47053;SDS011;32811;52.382;5.270;2023-12-28T11:37:42;17.45;;;1.88;;
47053;SDS011;32811;52.382;5.270;2023-12-28T11:40:13;13.50;;;2.40;;
47053;SDS011;32811;52.382;5.270;2023-12-28T11:42:49;22.73;;;2.45;;
47053;SDS011;32811;52.382;5.270;2023-12-28T11:45:22;22.75;;;2.53;;
47053;SDS011;32811;52.382;5.270;2023-12-28T11:48:01;18.83;;;2.08;;
47053;SDS011;32811;52.382;5.270;2023-12-28T11:50:30;13.13;;;3.00;;
47053;SDS011;32811;52.382;5.270;2023-12-28T11:52:58;15.20;;;3.10;;
47053;SDS011;32811;52.382;5.270;2023-12-28T11:55:25;14.60;;;2.08;;
47053;SDS011;32811;52.382;5.270;2023-12-28T11:57:51;14.23;;;1.98;;
47053;SDS011;32811;52.382;5.270;2023-12-28T12:00:18;14.82;;;2.63;;
47053;SDS011;32811;52.382;5.270;2023-12-28T12:02:47;20.48;;;3.05;;
47053;SDS011;32811;52.382;5.270;2023-12-28T12:05:14;15.20;;;4.22;;
47053;SDS011;32811;52.382;5.270;2023-12-28T12:07:41;16.83;;;2.42;;
47053;SDS011;32811;52.382;5.270;2023-12-28T12:10:08;35.10;;;6.00;;
47053;SDS011;32811;52.382;5.270;2023-12-28T12:12:40;20.55;;;2.70;;
47053;SDS011;32811;52.382;5.270;2023-12-28T12:15:07;21.77;;;2.80;;
47053;SDS011;32811;52.382;5.270;2023-12-28T12:17:35;21.55;;;2.97;;
47053;SDS011;32811;52.382;5.270;2023-12-28T12:20:01;21.45;;;2.45;;
47053;SDS011;32811;52.382;5.270;2023-12-28T12:22:28;20.10;;;2.80;;
47053;SDS011;32811;52.382;5.270;2023-12-28T12:24:55;11.93;;;2.15;;
47053;SDS011;32811;52.382;5.270;2023-12-28T12:27:24;28.35;;;3.33;;
47053;SDS011;32811;52.382;5.270;2023-12-28T12:29:51;18.83;;;2.20;;
47053;SDS011;32811;52.382;5.270;2023-12-28T12:32:18;19.55;;;2.42;;
47053;SDS011;32811;52.382;5.270;2023-12-28T12:34:44;17.92;;;2.80;;
47053;SDS011;32811;52.382;5.270;2023-12-28T12:37:11;13.75;;;2.35;;
47053;SDS011;32811;52.382;5.270;2023-12-28T12:39:38;17.65;;;3.10;;
47053;SDS011;32811;52.382;5.270;2023-12-28T12:42:05;19.48;;;2.90;;
47053;SDS011;32811;52.382;5.270;2023-12-28T12:44:31;14.82;;;2.38;;
47053;SDS011;32811;52.382;5.270;2023-12-28T12:46:59;18.40;;;2.58;;
47053;SDS011;32811;52.382;5.270;2023-12-28T12:49:28;22.75;;;2.67;;
47053;SDS011;32811;52.382;5.270;2023-12-28T12:51:55;17.33;;;3.33;;
47053;SDS011;32811;52.382;5.270;2023-12-28T12:54:22;23.75;;;3.30;;
47053;SDS011;32811;52.382;5.270;2023-12-28T12:56:52;17.85;;;2.78;;
47053;SDS011;32811;52.382;5.270;2023-12-28T12:59:19;23.70;;;3.03;;
47053;SDS011;32811;52.382;5.270;2023-12-28T13:01:46;20.05;;;2.42;;
47053;SDS011;32811;52.382;5.270;2023-12-28T13:04:16;20.95;;;3.03;;
47053;SDS011;32811;52.382;5.270;2023-12-28T13:06:43;24.60;;;2.83;;
47053;SDS011;32811;52.382;5.270;2023-12-28T13:09:10;26.52;;;2.97;;
47053;SDS011;32811;52.382;5.270;2023-12-28T13:11:38;23.75;;;3.40;;
47053;SDS011;32811;52.382;5.270;2023-12-28T13:14:04;15.32;;;3.10;;
47053;SDS011;32811;52.382;5.270;2023-12-28T13:16:31;18.80;;;3.30;;
47053;SDS011;32811;52.382;5.270;2023-12-28T13:18:58;25.23;;;4.22;;
47053;SDS011;32811;52.382;5.270;2023-12-28T13:21:25;18.38;;;4.15;;
47053;SDS011;32811;52.382;5.270;2023-12-28T13:23:52;16.90;;;2.65;;
47053;SDS011;32811;52.382;5.270;2023-12-28T13:26:18;20.40;;;2.33;;
47053;SDS011;32811;52.382;5.270;2023-12-28T13:28:45;17.63;;;2.10;;
47053;SDS011;32811;52.382;5.270;2023-12-28T13:31:12;16.10;;;2.35;;
47053;SDS011;32811;52.382;5.270;2023-12-28T13:33:39;15.13;;;2.25;;
47053;SDS011;32811;52.382;5.270;2023-12-28T13:36:05;12.88;;;2.08;;
47053;SDS011;32811;52.382;5.270;2023-12-28T13:38:32;10.95;;;2.35;;
47053;SDS011;32811;52.382;5.270;2023-12-28T13:41:01;16.35;;;2.20;;
47053;SDS011;32811;52.382;5.270;2023-12-28T13:43:28;22.40;;;3.33;;
47053;SDS011;32811;52.382;5.270;2023-12-28T13:45:55;14.05;;;2.10;;
47053;SDS011;32811;52.382;5.270;2023-12-28T13:48:22;13.35;;;2.58;;
47053;SDS011;32811;52.382;5.270;2023-12-28T13:50:50;15.35;;;2.97;;
47053;SDS011;32811;52.382;5.270;2023-12-28T13:53:17;20.42;;;2.28;;
47053;SDS011;32811;52.382;5.270;2023-12-28T13:55:44;18.17;;;2.83;;
47053;SDS011;32811;52.382;5.270;2023-12-28T13:58:11;20.20;;;4.28;;
47053;SDS011;32811;52.382;5.270;2023-12-28T14:00:37;17.25;;;3.67;;
47053;SDS011;32811;52.382;5.270;2023-12-28T14:03:04;19.90;;;2.75;;
47053;SDS011;32811;52.382;5.270;2023-12-28T14:05:31;14.45;;;2.10;;
47053;SDS011;32811;52.382;5.270;2023-12-28T14:08:01;17.92;;;3.83;;
47053;SDS011;32811;52.382;5.270;2023-12-28T14:10:30;23.15;;;3.78;;
47053;SDS011;32811;52.382;5.270;2023-12-28T14:12:56;17.63;;;3.42;;
47053;SDS011;32811;52.382;5.270;2023-12-28T14:15:24;13.68;;;2.88;;
47053;SDS011;32811;52.382;5.270;2023-12-28T14:17:50;20.35;;;2.45;;
47053;SDS011;32811;52.382;5.270;2023-12-28T14:20:17;13.38;;;2.13;;
47053;SDS011;32811;52.382;5.270;2023-12-28T14:22:44;14.05;;;2.78;;
47053;SDS011;32811;52.382;5.270;2023-12-28T14:25:11;16.80;;;3.42;;
47053;SDS011;32811;52.382;5.270;2023-12-28T14:27:38;20.70;;;2.53;;
47053;SDS011;32811;52.382;5.270;2023-12-28T14:30:06;12.50;;;2.72;;
47053;SDS011;32811;52.382;5.270;2023-12-28T14:32:35;21.88;;;4.07;;
47053;SDS011;32811;52.382;5.270;2023-12-28T14:35:03;19.52;;;3.38;;
47053;SDS011;32811;52.382;5.270;2023-12-28T14:37:30;29.88;;;2.95;;
47053;SDS011;32811;52.382;5.270;2023-12-28T14:39:56;14.82;;;3.10;;
47053;SDS011;32811;52.382;5.270;2023-12-28T14:42:23;14.02;;;2.28;;
47053;SDS011;32811;52.382;5.270;2023-12-28T14:44:50;16.42;;;1.90;;
47053;SDS011;32811;52.382;5.270;2023-12-28T14:47:17;20.75;;;3.95;;
47053;SDS011;32811;52.382;5.270;2023-12-28T14:49:44;22.40;;;3.03;;
47053;SDS011;32811;52.382;5.270;2023-12-28T14:52:11;12.35;;;1.92;;